sensor_id;sensor_type;location;lat;lon;timestamp;temperature;humidity
29255;DHT22;16277;48.890;2.306;2022-08-06T00:07:52;23.40;54.60
29255;DHT22;16277;48.890;2.306;2022-08-06T00:23:00;23.60;55.20
29255;DHT22;16277;48.890;2.306;2022-08-06T00:38:05;23.50;55.70
29255;DHT22;16277;48.890;2.306;2022-08-06T00:53:13;23.30;56.30
29255;DHT22;16277;48.890;2.306;2022-08-06T01:08:18;23.10;57.00
29255;DHT22;16277;48.890;2.306;2022-08-06T01:23:36;23.10;57.30
29255;DHT22;16277;48.890;2.306;2022-08-06T01:38:47;23.10;58.00
29255;DHT22;16277;48.890;2.306;2022-08-06T01:54:06;23.10;58.40
29255;DHT22;16277;48.890;2.306;2022-08-06T02:09:14;22.90;58.80
29255;DHT22;16277;48.890;2.306;2022-08-06T02:24:31;22.50;59.50
29255;DHT22;16277;48.890;2.306;2022-08-06T02:39:40;22.40;59.70
29255;DHT22;16277;48.890;2.306;2022-08-06T02:54:58;22.50;59.80
29255;DHT22;16277;48.890;2.306;2022-08-06T03:10:10;22.40;59.60
29255;DHT22;16277;48.890;2.306;2022-08-06T03:25:16;22.30;60.20
29255;DHT22;16277;48.890;2.306;2022-08-06T03:40:24;22.20;60.90
29255;DHT22;16277;48.890;2.306;2022-08-06T03:55:32;22.00;61.00
29255;DHT22;16277;48.890;2.306;2022-08-06T04:10:41;22.00;61.30
29255;DHT22;16277;48.890;2.306;2022-08-06T04:26:02;21.90;61.90
29255;DHT22;16277;48.890;2.306;2022-08-06T04:41:10;21.90;60.90
29255;DHT22;16277;48.890;2.306;2022-08-06T04:56:18;21.90;60.50
29255;DHT22;16277;48.890;2.306;2022-08-06T05:11:28;21.70;60.90
29255;DHT22;16277;48.890;2.306;2022-08-06T05:26:36;21.90;61.00
29255;DHT22;16277;48.890;2.306;2022-08-06T05:41:41;21.80;61.20
29255;DHT22;16277;48.890;2.306;2022-08-06T05:56:48;21.90;61.10
29255;DHT22;16277;48.890;2.306;2022-08-06T06:11:56;21.70;60.00
29255;DHT22;16277;48.890;2.306;2022-08-06T06:27:13;21.30;62.30
29255;DHT22;16277;48.890;2.306;2022-08-06T06:42:45;21.70;59.60
29255;DHT22;16277;48.890;2.306;2022-08-06T06:58:01;21.70;58.60
29255;DHT22;16277;48.890;2.306;2022-08-06T07:13:06;21.70;58.30
29255;DHT22;16277;48.890;2.306;2022-08-06T07:28:18;21.60;58.70
29255;DHT22;16277;48.890;2.306;2022-08-06T07:43:26;21.80;58.40
29255;DHT22;16277;48.890;2.306;2022-08-06T07:58:37;22.20;57.20
29255;DHT22;16277;48.890;2.306;2022-08-06T08:13:49;22.00;55.40
29255;DHT22;16277;48.890;2.306;2022-08-06T08:28:58;21.80;54.20
29255;DHT22;16277;48.890;2.306;2022-08-06T08:44:06;22.20;53.70
29255;DHT22;16277;48.890;2.306;2022-08-06T08:59:12;22.20;53.90
29255;DHT22;16277;48.890;2.306;2022-08-06T09:14:37;22.30;52.20
29255;DHT22;16277;48.890;2.306;2022-08-06T09:29:52;22.30;50.90
29255;DHT22;16277;48.890;2.306;2022-08-06T09:45:16;22.60;50.30
29255;DHT22;16277;48.890;2.306;2022-08-06T10:00:29;22.70;49.80
29255;DHT22;16277;48.890;2.306;2022-08-06T10:15:35;22.70;49.20
29255;DHT22;16277;48.890;2.306;2022-08-06T10:31:02;23.00;49.60
29255;DHT22;16277;48.890;2.306;2022-08-06T10:46:10;23.10;49.30
29255;DHT22;16277;48.890;2.306;2022-08-06T11:01:21;23.40;49.30
29255;DHT22;16277;48.890;2.306;2022-08-06T11:16:38;23.50;48.30
29255;DHT22;16277;48.890;2.306;2022-08-06T11:31:45;23.70;47.80
29255;DHT22;16277;48.890;2.306;2022-08-06T11:47:11;24.10;53.20
29255;DHT22;16277;48.890;2.306;2022-08-06T12:02:43;24.40;48.40
29255;DHT22;16277;48.890;2.306;2022-08-06T12:17:57;24.60;46.30
29255;DHT22;16277;48.890;2.306;2022-08-06T12:33:22;24.90;46.10
29255;DHT22;16277;48.890;2.306;2022-08-06T12:48:27;25.10;46.00
29255;DHT22;16277;48.890;2.306;2022-08-06T13:03:35;25.30;46.20
29255;DHT22;16277;48.890;2.306;2022-08-06T13:19:02;25.50;45.00
29255;DHT22;16277;48.890;2.306;2022-08-06T13:34:11;25.90;46.80
29255;DHT22;16277;48.890;2.306;2022-08-06T13:49:16;26.40;47.50
29255;DHT22;16277;48.890;2.306;2022-08-06T14:04:21;28.40;40.90
29255;DHT22;16277;48.890;2.306;2022-08-06T14:19:28;33.30;34.40
29255;DHT22;16277;48.890;2.306;2022-08-06T14:34:52;35.60;31.40
29255;DHT22;16277;48.890;2.306;2022-08-06T14:49:59;37.00;29.70
29255;DHT22;16277;48.890;2.306;2022-08-06T15:05:05;38.20;29.80
29255;DHT22;16277;48.890;2.306;2022-08-06T15:20:29;38.80;27.80
29255;DHT22;16277;48.890;2.306;2022-08-06T15:35:34;39.20;28.00
29255;DHT22;16277;48.890;2.306;2022-08-06T15:51:00;37.70;28.50
29255;DHT22;16277;48.890;2.306;2022-08-06T16:06:24;35.10;30.00
29255;DHT22;16277;48.890;2.306;2022-08-06T16:21:31;33.30;33.20
29255;DHT22;16277;48.890;2.306;2022-08-06T16:36:37;32.30;34.00
29255;DHT22;16277;48.890;2.306;2022-08-06T16:51:44;31.70;33.80
29255;DHT22;16277;48.890;2.306;2022-08-06T17:07:09;31.40;35.40
29255;DHT22;16277;48.890;2.306;2022-08-06T17:22:16;31.00;36.40
29255;DHT22;16277;48.890;2.306;2022-08-06T17:37:21;30.90;36.80
29255;DHT22;16277;48.890;2.306;2022-08-06T17:52:26;30.80;36.00
29255;DHT22;16277;48.890;2.306;2022-08-06T18:07:34;30.40;37.30
29255;DHT22;16277;48.890;2.306;2022-08-06T18:22:58;30.20;37.00
29255;DHT22;16277;48.890;2.306;2022-08-06T18:38:05;29.80;38.10
29255;DHT22;16277;48.890;2.306;2022-08-06T18:53:10;29.40;39.10
29255;DHT22;16277;48.890;2.306;2022-08-06T19:08:29;28.40;39.80
29255;DHT22;16277;48.890;2.306;2022-08-06T19:23:33;27.60;41.00
29255;DHT22;16277;48.890;2.306;2022-08-06T19:38:58;27.20;41.30
29255;DHT22;16277;48.890;2.306;2022-08-06T19:54:02;26.80;42.20
29255;DHT22;16277;48.890;2.306;2022-08-06T20:09:08;26.60;42.80
29255;DHT22;16277;48.890;2.306;2022-08-06T20:24:31;26.30;43.40
29255;DHT22;16277;48.890;2.306;2022-08-06T20:39:36;26.10;43.90
29255;DHT22;16277;48.890;2.306;2022-08-06T20:54:40;25.80;44.50
29255;DHT22;16277;48.890;2.306;2022-08-06T21:09:53;25.70;45.30
29255;DHT22;16277;48.890;2.306;2022-08-06T21:24:58;25.50;45.50
29255;DHT22;16277;48.890;2.306;2022-08-06T21:40:11;25.30;46.40
29255;DHT22;16277;48.890;2.306;2022-08-06T21:55:31;25.20;47.00
29255;DHT22;16277;48.890;2.306;2022-08-06T22:10:55;25.10;47.00
29255;DHT22;16277;48.890;2.306;2022-08-06T22:26:20;24.90;48.10
29255;DHT22;16277;48.890;2.306;2022-08-06T22:41:27;24.80;48.30
29255;DHT22;16277;48.890;2.306;2022-08-06T22:56:51;24.40;48.90
29255;DHT22;16277;48.890;2.306;2022-08-06T23:12:08;24.20;49.50
29255;DHT22;16277;48.890;2.306;2022-08-06T23:27:15;24.10;49.10
29255;DHT22;16277;48.890;2.306;2022-08-06T23:42:27;24.20;50.10
29255;DHT22;16277;48.890;2.306;2022-08-06T23:57:32;24.10;50.10
